sensor_id;sensor_type;location;lat;lon;timestamp;P1;durP1;ratioP1;P2;durP2;ratioP2
68188;SDS011;66299;47.514;19.218;2023-03-29T00:01:40;10.13;;;3.90;;
68188;SDS011;66299;47.514;19.218;2023-03-29T00:04:08;9.63;;;3.58;;
68188;SDS011;66299;47.514;19.218;2023-03-29T00:06:39;8.95;;;3.33;;
68188;SDS011;66299;47.514;19.218;2023-03-29T00:09:08;9.77;;;3.80;;
68188;SDS011;66299;47.514;19.218;2023-03-29T00:11:37;12.18;;;3.78;;
68188;SDS011;66299;47.514;19.218;2023-03-29T00:14:06;10.98;;;4.90;;
68188;SDS011;66299;47.514;19.218;2023-03-29T00:16:36;17.65;;;6.90;;
68188;SDS011;66299;47.514;19.218;2023-03-29T00:19:05;13.30;;;5.63;;
68188;SDS011;66299;47.514;19.218;2023-03-29T00:21:35;11.85;;;4.95;;
68188;SDS011;66299;47.514;19.218;2023-03-29T00:24:04;12.85;;;4.75;;
68188;SDS011;66299;47.514;19.218;2023-03-29T00:26:35;15.50;;;4.73;;
68188;SDS011;66299;47.514;19.218;2023-03-29T00:29:04;11.45;;;5.05;;
68188;SDS011;66299;47.514;19.218;2023-03-29T00:31:37;12.33;;;5.03;;
68188;SDS011;66299;47.514;19.218;2023-03-29T00:34:06;10.70;;;4.90;;
68188;SDS011;66299;47.514;19.218;2023-03-29T00:36:34;12.48;;;5.25;;
68188;SDS011;66299;47.514;19.218;2023-03-29T00:39:05;12.97;;;5.30;;
68188;SDS011;66299;47.514;19.218;2023-03-29T00:41:35;13.98;;;5.63;;
68188;SDS011;66299;47.514;19.218;2023-03-29T00:44:04;11.75;;;4.60;;
68188;SDS011;66299;47.514;19.218;2023-03-29T00:46:32;13.00;;;4.88;;
68188;SDS011;66299;47.514;19.218;2023-03-29T00:49:05;14.32;;;4.55;;
68188;SDS011;66299;47.514;19.218;2023-03-29T00:51:39;10.38;;;4.38;;
68188;SDS011;66299;47.514;19.218;2023-03-29T00:54:09;9.43;;;4.18;;
68188;SDS011;66299;47.514;19.218;2023-03-29T00:56:41;10.93;;;4.55;;
68188;SDS011;66299;47.514;19.218;2023-03-29T00:59:14;11.60;;;4.60;;
68188;SDS011;66299;47.514;19.218;2023-03-29T01:01:48;11.60;;;4.72;;
68188;SDS011;66299;47.514;19.218;2023-03-29T01:04:23;14.23;;;4.80;;
68188;SDS011;66299;47.514;19.218;2023-03-29T01:06:58;10.52;;;4.68;;
68188;SDS011;66299;47.514;19.218;2023-03-29T01:09:30;12.60;;;5.68;;
68188;SDS011;66299;47.514;19.218;2023-03-29T01:12:02;13.90;;;5.57;;
68188;SDS011;66299;47.514;19.218;2023-03-29T01:14:40;12.85;;;5.68;;
68188;SDS011;66299;47.514;19.218;2023-03-29T01:17:14;11.88;;;5.00;;
68188;SDS011;66299;47.514;19.218;2023-03-29T01:19:54;14.00;;;4.85;;
68188;SDS011;66299;47.514;19.218;2023-03-29T01:22:29;11.30;;;4.65;;
68188;SDS011;66299;47.514;19.218;2023-03-29T01:25:05;12.02;;;4.57;;
68188;SDS011;66299;47.514;19.218;2023-03-29T01:27:46;13.15;;;5.20;;
68188;SDS011;66299;47.514;19.218;2023-03-29T01:30:21;13.77;;;4.82;;
68188;SDS011;66299;47.514;19.218;2023-03-29T01:32:56;11.27;;;4.75;;
68188;SDS011;66299;47.514;19.218;2023-03-29T01:35:29;11.43;;;4.55;;
68188;SDS011;66299;47.514;19.218;2023-03-29T01:38:06;10.60;;;4.50;;
68188;SDS011;66299;47.514;19.218;2023-03-29T01:40:41;10.82;;;4.18;;
68188;SDS011;66299;47.514;19.218;2023-03-29T01:43:15;11.55;;;4.75;;
68188;SDS011;66299;47.514;19.218;2023-03-29T01:45:54;10.77;;;4.50;;
68188;SDS011;66299;47.514;19.218;2023-03-29T01:48:28;12.32;;;5.40;;
68188;SDS011;66299;47.514;19.218;2023-03-29T01:51:01;14.27;;;5.88;;
68188;SDS011;66299;47.514;19.218;2023-03-29T01:53:35;34.88;;;13.55;;
68188;SDS011;66299;47.514;19.218;2023-03-29T01:56:10;28.65;;;12.15;;
68188;SDS011;66299;47.514;19.218;2023-03-29T01:58:43;25.77;;;11.02;;
68188;SDS011;66299;47.514;19.218;2023-03-29T02:01:15;24.42;;;10.02;;
68188;SDS011;66299;47.514;19.218;2023-03-29T02:03:49;20.42;;;8.52;;
68188;SDS011;66299;47.514;19.218;2023-03-29T02:06:21;15.45;;;6.43;;
68188;SDS011;66299;47.514;19.218;2023-03-29T02:08:55;12.88;;;6.00;;
68188;SDS011;66299;47.514;19.218;2023-03-29T02:11:26;13.68;;;5.65;;
68188;SDS011;66299;47.514;19.218;2023-03-29T02:13:58;24.00;;;10.48;;
68188;SDS011;66299;47.514;19.218;2023-03-29T02:16:26;25.38;;;10.80;;
68188;SDS011;66299;47.514;19.218;2023-03-29T02:18:58;29.23;;;12.85;;
68188;SDS011;66299;47.514;19.218;2023-03-29T02:21:28;33.88;;;12.75;;
68188;SDS011;66299;47.514;19.218;2023-03-29T02:24:01;24.20;;;10.18;;
68188;SDS011;66299;47.514;19.218;2023-03-29T02:26:39;28.08;;;12.10;;
68188;SDS011;66299;47.514;19.218;2023-03-29T02:29:09;23.60;;;10.15;;
68188;SDS011;66299;47.514;19.218;2023-03-29T02:31:39;24.35;;;9.45;;
68188;SDS011;66299;47.514;19.218;2023-03-29T02:34:15;17.50;;;8.38;;
68188;SDS011;66299;47.514;19.218;2023-03-29T02:36:48;14.98;;;7.10;;
68188;SDS011;66299;47.514;19.218;2023-03-29T02:39:19;14.48;;;6.47;;
68188;SDS011;66299;47.514;19.218;2023-03-29T02:41:54;15.02;;;6.75;;
68188;SDS011;66299;47.514;19.218;2023-03-29T02:44:26;16.73;;;6.30;;
68188;SDS011;66299;47.514;19.218;2023-03-29T02:46:57;14.27;;;6.25;;
68188;SDS011;66299;47.514;19.218;2023-03-29T02:49:29;13.93;;;6.60;;
68188;SDS011;66299;47.514;19.218;2023-03-29T02:52:00;16.42;;;6.80;;
68188;SDS011;66299;47.514;19.218;2023-03-29T02:54:34;23.63;;;9.80;;
68188;SDS011;66299;47.514;19.218;2023-03-29T02:57:09;20.42;;;9.40;;
68188;SDS011;66299;47.514;19.218;2023-03-29T02:59:41;15.57;;;7.97;;
68188;SDS011;66299;47.514;19.218;2023-03-29T03:02:11;15.80;;;7.55;;
68188;SDS011;66299;47.514;19.218;2023-03-29T03:04:41;16.05;;;7.40;;
68188;SDS011;66299;47.514;19.218;2023-03-29T03:07:10;15.57;;;7.78;;
68188;SDS011;66299;47.514;19.218;2023-03-29T03:09:39;18.70;;;7.80;;
68188;SDS011;66299;47.514;19.218;2023-03-29T03:12:08;17.85;;;7.53;;
68188;SDS011;66299;47.514;19.218;2023-03-29T03:14:38;26.08;;;12.57;;
68188;SDS011;66299;47.514;19.218;2023-03-29T03:17:09;37.60;;;16.65;;
68188;SDS011;66299;47.514;19.218;2023-03-29T03:19:37;38.25;;;18.25;;
68188;SDS011;66299;47.514;19.218;2023-03-29T03:22:06;50.10;;;22.92;;
68188;SDS011;66299;47.514;19.218;2023-03-29T03:24:36;45.97;;;20.88;;
68188;SDS011;66299;47.514;19.218;2023-03-29T03:27:06;47.47;;;21.67;;
68188;SDS011;66299;47.514;19.218;2023-03-29T03:29:37;42.22;;;19.08;;
68188;SDS011;66299;47.514;19.218;2023-03-29T03:32:09;33.40;;;15.27;;
68188;SDS011;66299;47.514;19.218;2023-03-29T03:34:37;30.17;;;13.85;;
68188;SDS011;66299;47.514;19.218;2023-03-29T03:37:07;26.05;;;11.82;;
68188;SDS011;66299;47.514;19.218;2023-03-29T03:39:37;22.42;;;10.80;;
68188;SDS011;66299;47.514;19.218;2023-03-29T03:42:06;24.27;;;11.13;;
68188;SDS011;66299;47.514;19.218;2023-03-29T03:44:35;22.35;;;10.98;;
68188;SDS011;66299;47.514;19.218;2023-03-29T03:47:03;23.17;;;11.30;;
68188;SDS011;66299;47.514;19.218;2023-03-29T03:49:33;29.38;;;11.85;;
68188;SDS011;66299;47.514;19.218;2023-03-29T03:52:03;24.55;;;11.48;;
68188;SDS011;66299;47.514;19.218;2023-03-29T03:54:33;24.60;;;11.75;;
68188;SDS011;66299;47.514;19.218;2023-03-29T03:57:01;24.70;;;12.02;;
68188;SDS011;66299;47.514;19.218;2023-03-29T03:59:32;30.13;;;13.32;;
68188;SDS011;66299;47.514;19.218;2023-03-29T04:02:00;27.63;;;12.75;;
68188;SDS011;66299;47.514;19.218;2023-03-29T04:04:31;29.88;;;13.85;;
68188;SDS011;66299;47.514;19.218;2023-03-29T04:07:01;31.63;;;14.50;;
68188;SDS011;66299;47.514;19.218;2023-03-29T04:09:33;30.15;;;16.33;;
68188;SDS011;66299;47.514;19.218;2023-03-29T04:12:03;26.90;;;14.45;;
68188;SDS011;66299;47.514;19.218;2023-03-29T04:14:32;28.88;;;14.23;;
68188;SDS011;66299;47.514;19.218;2023-03-29T04:17:01;30.88;;;16.20;;
68188;SDS011;66299;47.514;19.218;2023-03-29T04:19:30;30.52;;;15.77;;
68188;SDS011;66299;47.514;19.218;2023-03-29T04:21:59;32.67;;;16.30;;
68188;SDS011;66299;47.514;19.218;2023-03-29T04:24:30;31.98;;;15.60;;
68188;SDS011;66299;47.514;19.218;2023-03-29T04:26:58;30.42;;;15.23;;
68188;SDS011;66299;47.514;19.218;2023-03-29T04:29:27;29.95;;;15.35;;
68188;SDS011;66299;47.514;19.218;2023-03-29T04:31:55;29.20;;;15.32;;
68188;SDS011;66299;47.514;19.218;2023-03-29T04:34:24;30.40;;;13.68;;
68188;SDS011;66299;47.514;19.218;2023-03-29T04:36:55;33.33;;;15.63;;
68188;SDS011;66299;47.514;19.218;2023-03-29T04:39:24;37.15;;;18.67;;
68188;SDS011;66299;47.514;19.218;2023-03-29T04:42:01;36.15;;;19.17;;
68188;SDS011;66299;47.514;19.218;2023-03-29T04:44:30;34.50;;;17.10;;
68188;SDS011;66299;47.514;19.218;2023-03-29T04:46:59;28.73;;;15.20;;
68188;SDS011;66299;47.514;19.218;2023-03-29T04:49:28;26.73;;;13.05;;
68188;SDS011;66299;47.514;19.218;2023-03-29T04:51:56;25.55;;;12.93;;
68188;SDS011;66299;47.514;19.218;2023-03-29T04:54:26;28.38;;;15.20;;
68188;SDS011;66299;47.514;19.218;2023-03-29T04:56:55;33.08;;;15.70;;
68188;SDS011;66299;47.514;19.218;2023-03-29T04:59:25;30.80;;;16.30;;
68188;SDS011;66299;47.514;19.218;2023-03-29T05:01:54;33.75;;;17.60;;
68188;SDS011;66299;47.514;19.218;2023-03-29T05:04:22;32.40;;;16.65;;
68188;SDS011;66299;47.514;19.218;2023-03-29T05:06:52;30.27;;;14.68;;
68188;SDS011;66299;47.514;19.218;2023-03-29T05:09:23;28.83;;;13.23;;
68188;SDS011;66299;47.514;19.218;2023-03-29T05:11:54;30.13;;;14.15;;
68188;SDS011;66299;47.514;19.218;2023-03-29T05:14:24;36.28;;;16.08;;
68188;SDS011;66299;47.514;19.218;2023-03-29T05:16:58;27.80;;;15.05;;
68188;SDS011;66299;47.514;19.218;2023-03-29T05:19:32;28.00;;;14.65;;
68188;SDS011;66299;47.514;19.218;2023-03-29T05:22:03;25.38;;;13.82;;
68188;SDS011;66299;47.514;19.218;2023-03-29T05:24:34;27.70;;;14.55;;
68188;SDS011;66299;47.514;19.218;2023-03-29T05:27:03;27.48;;;14.13;;
68188;SDS011;66299;47.514;19.218;2023-03-29T05:29:33;27.85;;;12.52;;
68188;SDS011;66299;47.514;19.218;2023-03-29T05:32:02;26.33;;;12.75;;
68188;SDS011;66299;47.514;19.218;2023-03-29T05:34:34;24.00;;;13.23;;
68188;SDS011;66299;47.514;19.218;2023-03-29T05:37:05;27.52;;;13.18;;
68188;SDS011;66299;47.514;19.218;2023-03-29T05:39:42;25.20;;;13.55;;
68188;SDS011;66299;47.514;19.218;2023-03-29T05:42:14;24.10;;;13.52;;
68188;SDS011;66299;47.514;19.218;2023-03-29T05:44:47;26.58;;;12.02;;
68188;SDS011;66299;47.514;19.218;2023-03-29T05:47:20;28.35;;;13.10;;
68188;SDS011;66299;47.514;19.218;2023-03-29T05:49:52;26.58;;;13.75;;
68188;SDS011;66299;47.514;19.218;2023-03-29T05:52:21;40.42;;;15.15;;
68188;SDS011;66299;47.514;19.218;2023-03-29T05:54:50;31.85;;;14.85;;
68188;SDS011;66299;47.514;19.218;2023-03-29T05:57:25;30.60;;;15.27;;
68188;SDS011;66299;47.514;19.218;2023-03-29T05:59:56;25.85;;;13.35;;
68188;SDS011;66299;47.514;19.218;2023-03-29T06:02:26;33.67;;;13.65;;
68188;SDS011;66299;47.514;19.218;2023-03-29T06:04:55;34.42;;;13.98;;
68188;SDS011;66299;47.514;19.218;2023-03-29T06:07:29;27.88;;;12.18;;
68188;SDS011;66299;47.514;19.218;2023-03-29T06:10:01;21.95;;;9.50;;
68188;SDS011;66299;47.514;19.218;2023-03-29T06:12:30;20.85;;;8.80;;
68188;SDS011;66299;47.514;19.218;2023-03-29T06:15:01;20.98;;;9.50;;
68188;SDS011;66299;47.514;19.218;2023-03-29T06:17:36;18.08;;;8.40;;
68188;SDS011;66299;47.514;19.218;2023-03-29T06:20:08;19.38;;;9.13;;
68188;SDS011;66299;47.514;19.218;2023-03-29T06:22:43;18.13;;;8.93;;
68188;SDS011;66299;47.514;19.218;2023-03-29T06:25:14;18.63;;;9.02;;
68188;SDS011;66299;47.514;19.218;2023-03-29T06:27:43;19.80;;;9.25;;
68188;SDS011;66299;47.514;19.218;2023-03-29T06:30:15;20.75;;;9.45;;
68188;SDS011;66299;47.514;19.218;2023-03-29T06:32:44;20.50;;;8.33;;
68188;SDS011;66299;47.514;19.218;2023-03-29T06:35:16;19.85;;;8.45;;
68188;SDS011;66299;47.514;19.218;2023-03-29T06:37:47;16.48;;;7.65;;
68188;SDS011;66299;47.514;19.218;2023-03-29T06:40:16;16.95;;;6.85;;
68188;SDS011;66299;47.514;19.218;2023-03-29T06:42:52;19.92;;;8.40;;
68188;SDS011;66299;47.514;19.218;2023-03-29T06:45:28;22.42;;;9.50;;
68188;SDS011;66299;47.514;19.218;2023-03-29T06:48:00;19.20;;;7.57;;
68188;SDS011;66299;47.514;19.218;2023-03-29T06:50:42;15.23;;;6.00;;
68188;SDS011;66299;47.514;19.218;2023-03-29T06:53:11;15.80;;;5.75;;
68188;SDS011;66299;47.514;19.218;2023-03-29T06:55:41;17.17;;;6.38;;
68188;SDS011;66299;47.514;19.218;2023-03-29T06:58:12;14.18;;;5.90;;
68188;SDS011;66299;47.514;19.218;2023-03-29T07:00:47;14.07;;;5.28;;
68188;SDS011;66299;47.514;19.218;2023-03-29T07:03:19;13.20;;;5.40;;
68188;SDS011;66299;47.514;19.218;2023-03-29T07:05:50;13.77;;;5.28;;
68188;SDS011;66299;47.514;19.218;2023-03-29T07:08:30;14.82;;;5.07;;
68188;SDS011;66299;47.514;19.218;2023-03-29T07:11:05;13.35;;;4.80;;
68188;SDS011;66299;47.514;19.218;2023-03-29T07:13:36;10.68;;;4.65;;
68188;SDS011;66299;47.514;19.218;2023-03-29T07:16:08;14.27;;;4.90;;
68188;SDS011;66299;47.514;19.218;2023-03-29T07:18:43;15.55;;;6.22;;
68188;SDS011;66299;47.514;19.218;2023-03-29T07:21:14;11.43;;;4.82;;
68188;SDS011;66299;47.514;19.218;2023-03-29T07:23:45;13.95;;;4.57;;
68188;SDS011;66299;47.514;19.218;2023-03-29T07:26:15;11.73;;;4.65;;
68188;SDS011;66299;47.514;19.218;2023-03-29T07:28:55;12.73;;;4.50;;
68188;SDS011;66299;47.514;19.218;2023-03-29T07:31:28;10.73;;;4.20;;
68188;SDS011;66299;47.514;19.218;2023-03-29T07:34:02;13.25;;;4.90;;
68188;SDS011;66299;47.514;19.218;2023-03-29T07:36:33;14.15;;;4.88;;
68188;SDS011;66299;47.514;19.218;2023-03-29T07:39:05;10.30;;;4.20;;
68188;SDS011;66299;47.514;19.218;2023-03-29T07:41:41;10.63;;;3.97;;
68188;SDS011;66299;47.514;19.218;2023-03-29T07:44:14;9.38;;;4.00;;
68188;SDS011;66299;47.514;19.218;2023-03-29T07:46:45;10.48;;;3.85;;
68188;SDS011;66299;47.514;19.218;2023-03-29T07:49:15;9.85;;;3.88;;
68188;SDS011;66299;47.514;19.218;2023-03-29T07:51:48;11.32;;;4.03;;
68188;SDS011;66299;47.514;19.218;2023-03-29T07:54:21;10.15;;;4.03;;
68188;SDS011;66299;47.514;19.218;2023-03-29T07:56:55;11.13;;;3.70;;
68188;SDS011;66299;47.514;19.218;2023-03-29T07:59:28;11.95;;;4.18;;
68188;SDS011;66299;47.514;19.218;2023-03-29T08:02:04;11.57;;;4.22;;
68188;SDS011;66299;47.514;19.218;2023-03-29T08:04:34;11.65;;;3.65;;
68188;SDS011;66299;47.514;19.218;2023-03-29T08:07:04;10.55;;;3.70;;
68188;SDS011;66299;47.514;19.218;2023-03-29T08:09:35;13.60;;;3.55;;
68188;SDS011;66299;47.514;19.218;2023-03-29T08:12:04;11.90;;;4.60;;
68188;SDS011;66299;47.514;19.218;2023-03-29T08:14:34;12.07;;;4.32;;
68188;SDS011;66299;47.514;19.218;2023-03-29T08:17:09;10.63;;;3.30;;
68188;SDS011;66299;47.514;19.218;2023-03-29T08:19:38;10.57;;;3.13;;
68188;SDS011;66299;47.514;19.218;2023-03-29T08:22:22;11.15;;;3.05;;
68188;SDS011;66299;47.514;19.218;2023-03-29T08:24:53;10.07;;;2.97;;
68188;SDS011;66299;47.514;19.218;2023-03-29T08:27:22;12.88;;;3.55;;
68188;SDS011;66299;47.514;19.218;2023-03-29T08:29:50;9.43;;;2.90;;
68188;SDS011;66299;47.514;19.218;2023-03-29T08:32:20;9.95;;;2.95;;
68188;SDS011;66299;47.514;19.218;2023-03-29T08:34:54;14.15;;;2.60;;
68188;SDS011;66299;47.514;19.218;2023-03-29T08:37:33;9.10;;;2.63;;
68188;SDS011;66299;47.514;19.218;2023-03-29T08:40:03;7.90;;;2.67;;
68188;SDS011;66299;47.514;19.218;2023-03-29T08:42:38;10.10;;;2.90;;
68188;SDS011;66299;47.514;19.218;2023-03-29T08:45:22;9.82;;;2.65;;
68188;SDS011;66299;47.514;19.218;2023-03-29T08:47:59;9.85;;;2.70;;
68188;SDS011;66299;47.514;19.218;2023-03-29T08:50:36;8.88;;;3.10;;
68188;SDS011;66299;47.514;19.218;2023-03-29T08:53:10;10.02;;;2.90;;
68188;SDS011;66299;47.514;19.218;2023-03-29T08:55:42;8.63;;;2.45;;
68188;SDS011;66299;47.514;19.218;2023-03-29T08:58:15;7.72;;;2.42;;
68188;SDS011;66299;47.514;19.218;2023-03-29T09:00:52;10.30;;;3.35;;
68188;SDS011;66299;47.514;19.218;2023-03-29T09:03:31;10.85;;;3.70;;
68188;SDS011;66299;47.514;19.218;2023-03-29T09:06:06;9.25;;;2.80;;
68188;SDS011;66299;47.514;19.218;2023-03-29T09:08:39;9.82;;;2.92;;
68188;SDS011;66299;47.514;19.218;2023-03-29T09:11:15;7.47;;;2.22;;
68188;SDS011;66299;47.514;19.218;2023-03-29T09:13:55;9.60;;;2.70;;
68188;SDS011;66299;47.514;19.218;2023-03-29T09:16:37;8.02;;;2.80;;
68188;SDS011;66299;47.514;19.218;2023-03-29T09:19:21;8.82;;;2.97;;
68188;SDS011;66299;47.514;19.218;2023-03-29T09:21:59;9.43;;;2.97;;
68188;SDS011;66299;47.514;19.218;2023-03-29T09:24:38;9.30;;;2.40;;
68188;SDS011;66299;47.514;19.218;2023-03-29T09:27:14;8.68;;;2.67;;
68188;SDS011;66299;47.514;19.218;2023-03-29T09:29:51;9.95;;;2.78;;
68188;SDS011;66299;47.514;19.218;2023-03-29T09:32:33;8.70;;;2.60;;
68188;SDS011;66299;47.514;19.218;2023-03-29T09:35:15;8.43;;;2.72;;
68188;SDS011;66299;47.514;19.218;2023-03-29T09:37:52;9.13;;;2.78;;
68188;SDS011;66299;47.514;19.218;2023-03-29T09:40:23;9.45;;;2.80;;
68188;SDS011;66299;47.514;19.218;2023-03-29T09:42:55;7.40;;;2.50;;
68188;SDS011;66299;47.514;19.218;2023-03-29T09:45:26;8.50;;;2.85;;
68188;SDS011;66299;47.514;19.218;2023-03-29T09:47:57;8.32;;;2.90;;
68188;SDS011;66299;47.514;19.218;2023-03-29T09:50:35;8.32;;;2.70;;
68188;SDS011;66299;47.514;19.218;2023-03-29T09:53:07;11.20;;;2.90;;
68188;SDS011;66299;47.514;19.218;2023-03-29T09:55:35;8.85;;;2.60;;
68188;SDS011;66299;47.514;19.218;2023-03-29T09:58:12;12.32;;;3.08;;
68188;SDS011;66299;47.514;19.218;2023-03-29T10:00:45;9.35;;;2.70;;
68188;SDS011;66299;47.514;19.218;2023-03-29T10:03:19;13.18;;;2.92;;
68188;SDS011;66299;47.514;19.218;2023-03-29T10:05:52;10.95;;;3.33;;
68188;SDS011;66299;47.514;19.218;2023-03-29T10:08:25;9.65;;;2.95;;
68188;SDS011;66299;47.514;19.218;2023-03-29T10:10:58;9.57;;;3.20;;
68188;SDS011;66299;47.514;19.218;2023-03-29T10:13:32;9.00;;;2.78;;
68188;SDS011;66299;47.514;19.218;2023-03-29T10:16:04;9.93;;;3.00;;
68188;SDS011;66299;47.514;19.218;2023-03-29T10:18:38;10.20;;;2.80;;
68188;SDS011;66299;47.514;19.218;2023-03-29T10:21:13;8.57;;;2.80;;
68188;SDS011;66299;47.514;19.218;2023-03-29T10:23:44;9.05;;;2.78;;
68188;SDS011;66299;47.514;19.218;2023-03-29T10:26:16;8.48;;;3.00;;
68188;SDS011;66299;47.514;19.218;2023-03-29T10:28:51;10.48;;;3.38;;
68188;SDS011;66299;47.514;19.218;2023-03-29T10:31:24;10.45;;;3.63;;
68188;SDS011;66299;47.514;19.218;2023-03-29T10:33:56;10.40;;;3.17;;
68188;SDS011;66299;47.514;19.218;2023-03-29T10:36:31;9.95;;;3.15;;
68188;SDS011;66299;47.514;19.218;2023-03-29T10:39:03;9.60;;;3.50;;
68188;SDS011;66299;47.514;19.218;2023-03-29T10:41:32;9.40;;;3.40;;
68188;SDS011;66299;47.514;19.218;2023-03-29T10:44:02;10.10;;;3.60;;
68188;SDS011;66299;47.514;19.218;2023-03-29T10:46:38;10.32;;;3.40;;
68188;SDS011;66299;47.514;19.218;2023-03-29T10:49:15;11.10;;;3.83;;
68188;SDS011;66299;47.514;19.218;2023-03-29T10:51:48;9.90;;;3.63;;
68188;SDS011;66299;47.514;19.218;2023-03-29T10:54:18;10.68;;;3.80;;
68188;SDS011;66299;47.514;19.218;2023-03-29T10:56:52;12.73;;;4.38;;
68188;SDS011;66299;47.514;19.218;2023-03-29T10:59:27;12.35;;;3.17;;
68188;SDS011;66299;47.514;19.218;2023-03-29T11:02:17;9.52;;;3.33;;
68188;SDS011;66299;47.514;19.218;2023-03-29T11:05:04;9.27;;;3.42;;
68188;SDS011;66299;47.514;19.218;2023-03-29T11:07:46;10.23;;;3.45;;
68188;SDS011;66299;47.514;19.218;2023-03-29T11:10:34;10.60;;;3.53;;
68188;SDS011;66299;47.514;19.218;2023-03-29T11:13:11;11.38;;;3.60;;
68188;SDS011;66299;47.514;19.218;2023-03-29T11:15:56;10.25;;;3.40;;
68188;SDS011;66299;47.514;19.218;2023-03-29T11:21:33;9.65;;;3.40;;
68188;SDS011;66299;47.514;19.218;2023-03-29T11:24:22;12.85;;;3.63;;
68188;SDS011;66299;47.514;19.218;2023-03-29T11:27:00;10.60;;;3.33;;
68188;SDS011;66299;47.514;19.218;2023-03-29T11:29:38;9.23;;;3.45;;
68188;SDS011;66299;47.514;19.218;2023-03-29T11:32:16;10.55;;;3.42;;
68188;SDS011;66299;47.514;19.218;2023-03-29T11:34:53;9.95;;;3.63;;
68188;SDS011;66299;47.514;19.218;2023-03-29T11:37:29;9.98;;;3.40;;
68188;SDS011;66299;47.514;19.218;2023-03-29T11:40:10;9.48;;;3.70;;
68188;SDS011;66299;47.514;19.218;2023-03-29T11:42:50;9.85;;;3.50;;
68188;SDS011;66299;47.514;19.218;2023-03-29T11:45:25;10.52;;;3.53;;
68188;SDS011;66299;47.514;19.218;2023-03-29T11:47:55;9.52;;;3.65;;
68188;SDS011;66299;47.514;19.218;2023-03-29T11:50:31;9.55;;;3.47;;
68188;SDS011;66299;47.514;19.218;2023-03-29T11:53:10;10.50;;;3.70;;
68188;SDS011;66299;47.514;19.218;2023-03-29T11:55:49;10.52;;;3.80;;
68188;SDS011;66299;47.514;19.218;2023-03-29T11:58:20;11.18;;;3.45;;
68188;SDS011;66299;47.514;19.218;2023-03-29T12:00:53;10.65;;;3.72;;
68188;SDS011;66299;47.514;19.218;2023-03-29T12:03:30;10.23;;;3.53;;
68188;SDS011;66299;47.514;19.218;2023-03-29T12:06:07;9.23;;;3.42;;
68188;SDS011;66299;47.514;19.218;2023-03-29T12:08:43;10.80;;;3.60;;
68188;SDS011;66299;47.514;19.218;2023-03-29T12:11:20;10.20;;;3.53;;
68188;SDS011;66299;47.514;19.218;2023-03-29T12:13:57;9.45;;;3.58;;
68188;SDS011;66299;47.514;19.218;2023-03-29T12:16:32;11.55;;;3.88;;
68188;SDS011;66299;47.514;19.218;2023-03-29T12:19:11;10.15;;;3.72;;
68188;SDS011;66299;47.514;19.218;2023-03-29T12:21:45;9.90;;;3.47;;
68188;SDS011;66299;47.514;19.218;2023-03-29T12:24:16;10.20;;;3.92;;
68188;SDS011;66299;47.514;19.218;2023-03-29T12:26:58;10.27;;;3.60;;
68188;SDS011;66299;47.514;19.218;2023-03-29T12:29:37;11.93;;;3.60;;
68188;SDS011;66299;47.514;19.218;2023-03-29T12:32:24;9.77;;;3.60;;
68188;SDS011;66299;47.514;19.218;2023-03-29T12:35:05;13.02;;;3.38;;
68188;SDS011;66299;47.514;19.218;2023-03-29T12:37:51;9.43;;;3.72;;
68188;SDS011;66299;47.514;19.218;2023-03-29T12:40:35;10.35;;;3.55;;
68188;SDS011;66299;47.514;19.218;2023-03-29T12:43:16;13.15;;;3.40;;
68188;SDS011;66299;47.514;19.218;2023-03-29T12:45:54;8.77;;;3.00;;
68188;SDS011;66299;47.514;19.218;2023-03-29T12:48:28;9.98;;;3.50;;
68188;SDS011;66299;47.514;19.218;2023-03-29T12:51:00;8.88;;;3.35;;
68188;SDS011;66299;47.514;19.218;2023-03-29T12:53:36;10.65;;;3.90;;
68188;SDS011;66299;47.514;19.218;2023-03-29T12:56:09;10.27;;;3.35;;
68188;SDS011;66299;47.514;19.218;2023-03-29T12:58:54;9.10;;;3.13;;
68188;SDS011;66299;47.514;19.218;2023-03-29T13:01:34;10.77;;;3.17;;
68188;SDS011;66299;47.514;19.218;2023-03-29T13:04:13;8.98;;;3.10;;
68188;SDS011;66299;47.514;19.218;2023-03-29T13:06:55;9.88;;;3.20;;
68188;SDS011;66299;47.514;19.218;2023-03-29T13:09:46;8.38;;;3.00;;
68188;SDS011;66299;47.514;19.218;2023-03-29T13:12:23;7.90;;;2.90;;
68188;SDS011;66299;47.514;19.218;2023-03-29T13:14:57;9.15;;;3.28;;
68188;SDS011;66299;47.514;19.218;2023-03-29T13:17:32;8.82;;;3.38;;
68188;SDS011;66299;47.514;19.218;2023-03-29T13:20:13;9.20;;;3.38;;
68188;SDS011;66299;47.514;19.218;2023-03-29T13:23:05;10.50;;;3.80;;
68188;SDS011;66299;47.514;19.218;2023-03-29T13:25:50;9.30;;;3.60;;
68188;SDS011;66299;47.514;19.218;2023-03-29T13:28:33;12.55;;;3.92;;
68188;SDS011;66299;47.514;19.218;2023-03-29T13:31:15;10.85;;;3.80;;
68188;SDS011;66299;47.514;19.218;2023-03-29T13:33:55;8.48;;;3.15;;
68188;SDS011;66299;47.514;19.218;2023-03-29T13:36:37;9.00;;;3.40;;
68188;SDS011;66299;47.514;19.218;2023-03-29T13:39:14;13.85;;;4.50;;
68188;SDS011;66299;47.514;19.218;2023-03-29T13:41:48;11.50;;;4.05;;
68188;SDS011;66299;47.514;19.218;2023-03-29T13:44:23;11.00;;;3.97;;
68188;SDS011;66299;47.514;19.218;2023-03-29T13:47:10;12.38;;;4.30;;
68188;SDS011;66299;47.514;19.218;2023-03-29T13:49:43;9.90;;;4.13;;
68188;SDS011;66299;47.514;19.218;2023-03-29T13:52:21;9.90;;;4.15;;
68188;SDS011;66299;47.514;19.218;2023-03-29T13:54:54;10.85;;;4.10;;
68188;SDS011;66299;47.514;19.218;2023-03-29T13:57:32;13.20;;;4.63;;
68188;SDS011;66299;47.514;19.218;2023-03-29T14:00:08;11.48;;;4.88;;
68188;SDS011;66299;47.514;19.218;2023-03-29T14:02:46;11.55;;;4.72;;
68188;SDS011;66299;47.514;19.218;2023-03-29T14:05:18;10.93;;;4.60;;
68188;SDS011;66299;47.514;19.218;2023-03-29T14:07:52;11.23;;;4.30;;
68188;SDS011;66299;47.514;19.218;2023-03-29T14:10:25;10.13;;;3.92;;
68188;SDS011;66299;47.514;19.218;2023-03-29T14:12:59;10.68;;;4.20;;
68188;SDS011;66299;47.514;19.218;2023-03-29T14:15:37;12.43;;;4.47;;
68188;SDS011;66299;47.514;19.218;2023-03-29T14:18:15;10.73;;;4.30;;
68188;SDS011;66299;47.514;19.218;2023-03-29T14:20:47;11.65;;;4.35;;
68188;SDS011;66299;47.514;19.218;2023-03-29T14:23:20;12.27;;;4.55;;
68188;SDS011;66299;47.514;19.218;2023-03-29T14:25:50;10.38;;;4.22;;
68188;SDS011;66299;47.514;19.218;2023-03-29T14:28:20;15.10;;;4.63;;
68188;SDS011;66299;47.514;19.218;2023-03-29T14:30:50;10.80;;;4.30;;
68188;SDS011;66299;47.514;19.218;2023-03-29T14:33:27;12.80;;;4.40;;
68188;SDS011;66299;47.514;19.218;2023-03-29T14:36:00;11.20;;;4.30;;
68188;SDS011;66299;47.514;19.218;2023-03-29T14:38:31;16.48;;;4.60;;
68188;SDS011;66299;47.514;19.218;2023-03-29T14:41:02;11.30;;;4.20;;
68188;SDS011;66299;47.514;19.218;2023-03-29T14:43:32;11.10;;;4.00;;
68188;SDS011;66299;47.514;19.218;2023-03-29T14:46:01;10.88;;;4.32;;
68188;SDS011;66299;47.514;19.218;2023-03-29T14:48:36;11.05;;;4.40;;
68188;SDS011;66299;47.514;19.218;2023-03-29T14:51:04;11.38;;;4.30;;
68188;SDS011;66299;47.514;19.218;2023-03-29T14:53:34;10.65;;;4.80;;
68188;SDS011;66299;47.514;19.218;2023-03-29T14:56:04;10.98;;;4.43;;
68188;SDS011;66299;47.514;19.218;2023-03-29T14:58:34;10.73;;;4.43;;
68188;SDS011;66299;47.514;19.218;2023-03-29T15:01:05;13.50;;;4.80;;